Time;durP1;ratioP1;P1;durP2;ratioP2;P2;SDS_P1;SDS_P2;PMS_P1;PMS_P2;Temp;Humidity;BMP_temperature;BMP_pressure;BME280_temperature;BME280_humidity;BME280_pressure;Samples;Min_cycle;Max_cycle;Signal;HPM_P1;HPM_P2
2021/03/25 00:00:20;;;;;;;;;;;;;;;-0.54;52.88;99506.28;1839518;77;20223;-64
2021/03/25 00:02:48;;;;;;;;;;;;;;;-0.51;52.83;99505.27;1857470;77;20417;-64
2021/03/25 00:05:17;;;;;;;;;;;;;;;-0.50;52.74;99498.70;1818399;77;20149;-64
2021/03/25 00:07:44;;;;;;;;;;;;;;;-0.49;52.79;99501.66;1852987;77;20135;-64
2021/03/25 00:10:16;;;;;;;;;;;;;;;-0.47;52.59;99495.09;1848777;77;20182;-64
2021/03/25 00:12:43;;;;;;;;;;;;;;;-0.46;52.45;99495.48;1862344;77;20139;-64
2021/03/25 00:15:14;;;;;;;;;;;;;;;-0.49;52.52;99492.56;1865804;77;20143;-64
2021/03/25 00:17:42;;;;;;;;;;;;;;;-0.47;52.58;99492.48;1853771;77;20146;-65
2021/03/25 00:20:12;;;;;;;;;;;;;;;-0.48;52.68;99493.42;1852950;77;20386;-64
2021/03/25 00:22:39;;;;;;;;;;;;;;;-0.47;52.66;99489.89;1834706;77;20134;-64
2021/03/25 00:25:08;;;;;;;;;;;;;;;-0.46;52.60;99490.28;1866459;77;20162;-64
2021/03/25 00:27:35;;;;;;;;;;;;;;;-0.46;52.42;99485.09;1827073;77;20497;-64
2021/03/25 00:30:05;;;;;;;;;;;;;;;-0.45;52.44;99489.34;1856941;77;20165;-64
2021/03/25 00:32:33;;;;;;;;;;;;;;;-0.46;52.38;99493.70;1861238;77;20237;-64
2021/03/25 00:35:01;;;;;;;;;;;;;;;-0.45;52.54;99491.94;1841762;77;20241;-64
2021/03/25 00:37:28;;;;;;;;;;;;;;;-0.43;52.42;99496.59;1834155;77;20402;-64
2021/03/25 00:39:56;;;;;;;;;;;;;;;-0.46;52.51;99491.11;1853624;77;20235;-64
2021/03/25 00:42:24;;;;;;;;;;;;;;;-0.45;52.76;99486.75;1867570;77;20139;-64
2021/03/25 00:44:51;;;;;;;;;;;;;;;-0.43;52.75;99490.09;1861977;77;20173;-64
2021/03/25 00:47:20;;;;;;;;;;;;;;;-0.43;52.50;99484.90;1832063;77;20134;-64
2021/03/25 00:49:47;;;;;;;;;;;;;;;-0.44;52.54;99488.44;1860875;77;20130;-64
2021/03/25 00:52:14;;;;;;;;;;;;;;;-0.44;52.68;99482.77;1866910;77;20221;-64
2021/03/25 00:54:43;;;;;;;;;;;;;;;-0.44;52.71;99489.73;1853226;77;20138;-64
2021/03/25 00:57:11;;;;;;;;;;;;;;;-0.42;52.53;99496.98;1839267;77;20230;-64
2021/03/25 00:59:39;;;;;;;;;;;;;;;-0.42;52.53;99489.19;1848671;77;20126;-64
2021/03/25 01:02:06;;;;;;;;;;;;;;;-0.42;52.36;99484.82;1866373;77;20224;-64
2021/03/25 01:04:34;;;;;;;;;;;;;;;-0.40;52.42;99483.44;1850700;77;20547;-64
2021/03/25 01:07:02;;;;;;;;;;;;;;;-0.43;52.44;99493.55;1855151;77;20146;-64
2021/03/25 01:09:31;;;;;;;;;;;;;;;-0.41;52.39;99488.28;1867857;77;20425;-65
2021/03/25 01:12:02;;;;;;;;;;;;;;;-0.42;52.36;99488.72;1853233;77;20127;-64
2021/03/25 01:14:32;;;;;;;;;;;;;;;-0.45;52.82;99486.75;1822363;77;20175;-64
2021/03/25 01:17:05;;;;;;;;;;;;;;;-0.46;52.92;99482.48;1859970;77;20138;-64
2021/03/25 01:19:32;;;;;;;;;;;;;;;-0.50;52.70;99488.78;1850737;77;20547;-64
2021/03/25 01:22:00;;;;;;;;;;;;;;;-0.54;52.64;99485.50;1864850;77;20418;-64
2021/03/25 01:24:28;;;;;;;;;;;;;;;-0.54;52.65;99484.64;1833677;77;20409;-65
2021/03/25 01:26:56;;;;;;;;;;;;;;;-0.57;52.80;99485.66;1814955;78;20151;-64
2021/03/25 01:29:26;;;;;;;;;;;;;;;-0.59;52.89;99483.13;1842993;77;20154;-64
2021/03/25 01:31:54;;;;;;;;;;;;;;;-0.57;53.00;99484.83;1850433;77;20150;-63
2021/03/25 01:34:22;;;;;;;;;;;;;;;-0.60;53.05;99490.56;1844742;77;20193;-64
2021/03/25 01:36:50;;;;;;;;;;;;;;;-0.58;53.09;99489.16;1850368;77;20170;-64
2021/03/25 01:39:20;;;;;;;;;;;;;;;-0.56;53.22;99486.48;1846661;77;20142;-64
2021/03/25 01:41:47;;;;;;;;;;;;;;;-0.58;53.04;99483.97;1836953;77;20158;-64
2021/03/25 01:44:29;;;;;;;;;;;;;;;-0.58;53.16;99485.27;1834084;77;20225;-64
2021/03/25 01:46:57;;;;;;;;;;;;;;;-0.59;53.42;99492.70;1844233;77;20266;-64
2021/03/25 01:49:26;;;;;;;;;;;;;;;-0.61;53.64;99489.34;1858792;77;20397;-64
2021/03/25 01:52:27;;;;;;;;;;;;;;;-0.65;53.81;99483.47;1867319;77;20126;-64
2021/03/25 01:55:15;;;;;;;;;;;;;;;-0.68;54.13;99488.81;1850065;77;20119;-64
2021/03/25 01:57:53;;;;;;;;;;;;;;;-0.70;54.62;99488.53;1855664;77;20150;-64
2021/03/25 02:00:51;;;;;;;;;;;;;;;-0.76;54.84;99493.59;1858546;77;20237;-63
2021/03/25 02:03:25;;;;;;;;;;;;;;;-0.80;55.11;99492.08;1834592;77;20142;-64
2021/03/25 02:06:04;;;;;;;;;;;;;;;-0.88;55.54;99495.08;1866296;77;20221;-64
2021/03/25 02:08:43;;;;;;;;;;;;;;;-0.92;55.67;99492.71;1854938;77;20297;-64
2021/03/25 02:11:32;;;;;;;;;;;;;;;-0.95;55.90;99494.16;1850117;77;20150;-64
2021/03/25 02:14:17;;;;;;;;;;;;;;;-1.00;56.16;99490.05;1855340;77;20162;-63
2021/03/25 02:17:03;;;;;;;;;;;;;;;-1.00;56.34;99494.41;1848179;77;20166;-64
2021/03/25 02:19:48;;;;;;;;;;;;;;;-1.05;56.58;99488.17;1854594;77;20142;-64
2021/03/25 02:22:46;;;;;;;;;;;;;;;-1.06;56.73;99487.78;1850207;77;20134;-64
2021/03/25 02:25:17;;;;;;;;;;;;;;;-1.09;57.03;99484.50;1846154;77;20120;-64
2021/03/25 02:28:10;;;;;;;;;;;;;;;-1.13;57.26;99485.11;1855525;77;21300;-63
2021/03/25 02:30:51;;;;;;;;;;;;;;;-1.15;57.46;99477.87;1804456;77;20229;-63
2021/03/25 02:33:21;;;;;;;;;;;;;;;-1.21;57.62;99483.38;1863944;77;20414;-64
2021/03/25 02:35:54;;;;;;;;;;;;;;;-1.26;58.07;99481.00;1865305;77;20238;-64
2021/03/25 02:38:25;;;;;;;;;;;;;;;-1.29;58.20;99479.02;1854940;77;20230;-63
2021/03/25 02:40:56;;;;;;;;;;;;;;;-1.32;58.46;99483.09;1853007;77;20138;-64
2021/03/25 02:43:34;;;;;;;;;;;;;;;-1.36;58.56;99481.11;1864622;77;20237;-64
2021/03/25 02:46:23;;;;;;;;;;;;;;;-1.40;58.84;99483.48;1827494;77;20242;-64
2021/03/25 02:48:54;;;;;;;;;;;;;;;-1.42;59.19;99484.84;1861264;77;20146;-64
2021/03/25 02:51:27;;;;;;;;;;;;;;;-1.45;59.48;99487.58;1841042;77;20232;-63
2021/03/25 02:53:55;;;;;;;;;;;;;;;-1.47;59.53;99482.94;1834759;77;20643;-64
2021/03/25 02:56:33;;;;;;;;;;;;;;;-1.50;59.92;99475.76;1839476;77;20146;-64
2021/03/25 02:59:06;;;;;;;;;;;;;;;-1.52;60.08;99484.08;1853352;77;20146;-64
2021/03/25 03:01:35;;;;;;;;;;;;;;;-1.54;60.44;99478.97;1849862;77;20130;-63
2021/03/25 03:04:19;;;;;;;;;;;;;;;-1.58;60.48;99479.57;1855214;77;20142;-64
2021/03/25 03:07:01;;;;;;;;;;;;;;;-1.58;60.69;99484.76;1810208;77;20237;-64
2021/03/25 03:09:39;;;;;;;;;;;;;;;-1.61;60.82;99482.77;1866751;77;20158;-64
2021/03/25 03:12:13;;;;;;;;;;;;;;;-1.63;61.11;99484.61;1854617;77;20201;-64
2021/03/25 03:14:49;;;;;;;;;;;;;;;-1.65;61.30;99490.33;1862980;77;20127;-64
2021/03/25 03:17:33;;;;;;;;;;;;;;;-1.66;61.51;99487.38;1855427;77;20185;-63
2021/03/25 03:20:22;;;;;;;;;;;;;;;-1.70;61.68;99494.89;1822290;77;20154;-64
2021/03/25 03:23:30;;;;;;;;;;;;;;;-1.67;62.00;99488.27;1939771;74;20485;-65
2021/03/25 03:26:03;;;;;;;;;;;;;;;-1.73;61.94;99493.77;1887994;75;20144;-64
2021/03/25 03:28:34;;;;;;;;;;;;;;;-1.78;62.08;99498.72;1865341;75;20120;-64
2021/03/25 03:31:06;;;;;;;;;;;;;;;-1.79;62.23;99498.33;1901198;75;20136;-64
2021/03/25 03:33:36;;;;;;;;;;;;;;;-1.81;62.31;99494.14;1841015;75;20175;-65
2021/03/25 03:36:07;;;;;;;;;;;;;;;-1.82;62.28;99489.39;1870432;75;20221;-64
2021/03/25 03:38:38;;;;;;;;;;;;;;;-1.82;62.23;99489.39;1862651;77;20247;-64
2021/03/25 03:41:27;;;;;;;;;;;;;;;-1.85;62.23;99491.29;1860655;77;20311;-64
2021/03/25 03:43:55;;;;;;;;;;;;;;;-1.85;62.35;99488.70;1861084;77;20253;-65
2021/03/25 03:46:25;;;;;;;;;;;;;;;-1.86;62.25;99490.92;1805186;77;20143;-64
2021/03/25 03:49:17;;;;;;;;;;;;;;;-1.87;62.14;99493.98;1853417;77;20166;-64
2021/03/25 03:51:48;;;;;;;;;;;;;;;-1.88;62.03;99490.16;1851677;77;20131;-64
2021/03/25 03:54:16;;;;;;;;;;;;;;;-1.90;61.93;99490.69;1860796;77;20273;-64
2021/03/25 03:56:51;;;;;;;;;;;;;;;-1.92;62.08;99494.66;1868210;77;20138;-64
2021/03/25 03:59:32;;;;;;;;;;;;;;;-1.93;62.11;99493.42;1867238;77;20138;-64
2021/03/25 04:02:03;;;;;;;;;;;;;;;-1.92;62.13;99492.06;1856551;77;20134;-64
2021/03/25 04:04:35;;;;;;;;;;;;;;;-1.92;61.95;99492.52;1853940;77;20222;-65
2021/03/25 04:07:14;;;;;;;;;;;;;;;-1.91;61.83;99491.59;1833116;77;20285;-63
2021/03/25 04:10:06;;;;;;;;;;;;;;;-1.88;61.80;99494.05;1834808;77;20141;-63
2021/03/25 04:12:38;;;;;;;;;;;;;;;-1.87;61.59;99492.69;1865244;77;20142;-64
2021/03/25 04:15:22;;;;;;;;;;;;;;;-1.83;61.50;99495.50;1868157;77;20158;-63
2021/03/25 04:18:12;;;;;;;;;;;;;;;-1.80;61.34;99495.34;1867080;77;20162;-63
2021/03/25 04:20:45;;;;;;;;;;;;;;;-1.73;60.99;99492.00;1845526;77;20563;-63
2021/03/25 04:23:21;;;;;;;;;;;;;;;-1.69;60.72;99496.58;1821099;77;20248;-63
2021/03/25 04:25:58;;;;;;;;;;;;;;;-1.65;60.54;99495.52;1864807;77;20124;-64
2021/03/25 04:28:39;;;;;;;;;;;;;;;-1.59;60.22;99496.06;1860922;77;20133;-63
2021/03/25 04:31:08;;;;;;;;;;;;;;;-1.51;59.98;99497.45;1867317;77;20131;-63
2021/03/25 04:33:38;;;;;;;;;;;;;;;-1.43;59.70;99507.80;1862757;77;20153;-64
2021/03/25 04:36:09;;;;;;;;;;;;;;;-1.37;59.56;99501.03;1855612;77;20134;-64
2021/03/25 04:38:39;;;;;;;;;;;;;;;-1.25;59.37;99507.34;1838617;77;20134;-64
2021/03/25 04:41:07;;;;;;;;;;;;;;;-1.13;59.08;99499.86;1836556;77;20130;-64
2021/03/25 04:43:37;;;;;;;;;;;;;;;-0.99;58.81;99503.42;1822023;77;20151;-64
2021/03/25 04:46:26;;;;;;;;;;;;;;;-0.82;58.35;99502.55;1854499;77;20434;-64
2021/03/25 04:48:56;;;;;;;;;;;;;;;-0.63;57.84;99502.41;1861322;77;20225;-65
2021/03/25 04:51:25;;;;;;;;;;;;;;;-0.35;57.23;99497.03;1867500;77;20536;-65
2021/03/25 04:54:14;;;;;;;;;;;;;;;-0.09;56.71;99493.47;1844734;77;20142;-65
2021/03/25 04:56:41;;;;;;;;;;;;;;;0.17;56.09;99501.95;1865788;77;20490;-65
2021/03/25 04:59:09;;;;;;;;;;;;;;;0.47;55.41;99497.67;1843288;77;20130;-66
2021/03/25 05:01:36;;;;;;;;;;;;;;;0.75;54.93;99503.44;1863385;77;20138;-65
2021/03/25 05:04:05;;;;;;;;;;;;;;;1.05;54.43;99505.13;1849945;77;20150;-65
2021/03/25 05:06:48;;;;;;;;;;;;;;;1.35;53.99;99503.28;1826702;77;20143;-65
2021/03/25 05:09:20;;;;;;;;;;;;;;;1.68;53.44;99512.57;1866606;77;20142;-66
2021/03/25 05:11:49;;;;;;;;;;;;;;;2.03;52.74;99512.09;1855550;77;20122;-65
2021/03/25 05:14:20;;;;;;;;;;;;;;;2.36;52.02;99516.09;1855566;77;20154;-65
2021/03/25 05:17:08;;;;;;;;;;;;;;;2.75;50.78;99514.86;1833518;77;20295;-65
2021/03/25 05:19:58;;;;;;;;;;;;;;;3.24;49.72;99514.17;1856265;77;20134;-65
2021/03/25 05:22:40;;;;;;;;;;;;;;;3.85;48.33;99515.56;1850202;77;20182;-65
2021/03/25 05:25:35;;;;;;;;;;;;;;;4.42;46.37;99516.71;1855379;77;20130;-65
2021/03/25 05:28:19;;;;;;;;;;;;;;;4.93;45.17;99522.11;1823584;77;20150;-65
2021/03/25 05:30:47;;;;;;;;;;;;;;;5.53;43.78;99523.59;1843387;77;20122;-65
2021/03/25 05:33:16;;;;;;;;;;;;;;;6.17;42.38;99520.32;1844740;77;20389;-65
2021/03/25 05:35:48;;;;;;;;;;;;;;;6.71;40.72;99525.10;1844718;77;20171;-66
2021/03/25 05:38:15;;;;;;;;;;;;;;;7.23;39.89;99518.59;1825676;77;20248;-65
2021/03/25 05:41:10;;;;;;;;;;;;;;;7.78;38.76;99523.54;1814888;77;20198;-65
2021/03/25 05:44:01;;;;;;;;;;;;;;;8.38;37.36;99521.34;1765287;81;20339;-65
2021/03/25 05:46:52;;;;;;;;;;;;;;;8.89;36.69;99526.35;1762783;81;20429;-65
2021/03/25 05:49:29;;;;;;;;;;;;;;;9.40;35.13;99519.00;1815310;77;20157;-64
2021/03/25 05:52:04;;;;;;;;;;;;;;;9.89;34.25;99524.06;1820213;77;20135;-64
2021/03/25 05:54:43;;;;;;;;;;;;;;;10.46;33.30;99526.02;1855059;77;20131;-64
2021/03/25 05:57:23;;;;;;;;;;;;;;;10.98;32.27;99529.27;1867084;77;20405;-64
2021/03/25 06:00:10;;;;;;;;;;;;;;;11.42;31.59;99529.20;1861457;77;20280;-65
2021/03/25 06:02:59;;;;;;;;;;;;;;;11.97;30.67;99524.49;1856391;77;20257;-66
2021/03/25 06:05:28;;;;;;;;;;;;;;;12.50;29.64;99537.88;1860731;77;20134;-66
2021/03/25 06:08:03;;;;;;;;;;;;;;;12.90;28.47;99532.75;1837107;77;20157;-66
2021/03/25 06:10:34;;;;;;;;;;;;;;;13.28;27.71;99541.84;1850657;77;20138;-65
2021/03/25 06:13:34;;;;;;;;;;;;;;;13.65;27.04;99534.30;1860629;77;20225;-65
2021/03/25 06:16:21;;;;;;;;;;;;;;;14.10;26.40;99538.94;1818160;77;20242;-66
2021/03/25 06:19:15;;;;;;;;;;;;;;;14.42;25.02;99533.09;1838989;77;20127;-66
2021/03/25 06:22:05;;;;;;;;;;;;;;;14.64;24.80;99536.77;1841957;77;20134;-66
2021/03/25 06:24:57;;;;;;;;;;;;;;;14.95;24.57;99536.69;1862904;77;20272;-66
2021/03/25 06:27:44;;;;;;;;;;;;;;;15.45;24.07;99545.05;1849566;77;20122;-66
2021/03/25 06:30:21;;;;;;;;;;;;;;;15.74;23.06;99539.92;1844323;77;20142;-66
2021/03/25 06:33:05;;;;;;;;;;;;;;;15.76;23.12;99547.23;1833064;77;20118;-67
2021/03/25 06:35:46;;;;;;;;;;;;;;;16.09;22.61;99549.80;1851325;77;20126;-66
2021/03/25 06:38:17;;;;;;;;;;;;;;;16.60;22.04;99544.91;1857454;77;20138;-67
2021/03/25 06:40:52;;;;;;;;;;;;;;;16.82;21.76;99544.91;1804695;78;20261;-65
2021/03/25 06:43:24;;;;;;;;;;;;;;;17.14;21.44;99543.55;1857504;77;20161;-67
2021/03/25 06:45:59;;;;;;;;;;;;;;;17.66;20.66;99541.43;1847284;77;20154;-67
2021/03/25 06:48:50;;;;;;;;;;;;;;;18.01;19.86;99534.70;1849963;77;20399;-66
2021/03/25 06:51:22;;;;;;;;;;;;;;;18.17;19.76;99528.20;1833934;77;20229;-66
2021/03/25 06:54:05;;;;;;;;;;;;;;;18.38;19.43;99528.03;1851447;77;20225;-67
2021/03/25 06:56:35;;;;;;;;;;;;;;;18.62;19.06;99532.51;1866380;77;20239;-67
2021/03/25 06:59:04;;;;;;;;;;;;;;;18.75;18.65;99535.20;1862594;77;20193;-67
2021/03/25 07:01:35;;;;;;;;;;;;;;;18.98;18.20;99538.86;1861377;77;20173;-68
2021/03/25 07:04:06;;;;;;;;;;;;;;;19.36;18.08;99543.56;1866521;77;20205;-67
2021/03/25 07:06:35;;;;;;;;;;;;;;;19.88;17.33;99537.46;1867237;77;20221;-67
2021/03/25 07:09:04;;;;;;;;;;;;;;;20.28;16.64;99536.77;1850046;77;20197;-67
2021/03/25 07:11:34;;;;;;;;;;;;;;;20.43;16.57;99532.98;1866078;77;20126;-67
2021/03/25 07:14:06;;;;;;;;;;;;;;;20.54;15.99;99532.28;1855051;77;20425;-67
2021/03/25 07:16:39;;;;;;;;;;;;;;;20.71;15.89;99537.98;1860584;77;20225;-66
2021/03/25 07:19:17;;;;;;;;;;;;;;;21.01;15.45;99534.13;1865302;77;20135;-67
2021/03/25 07:21:48;;;;;;;;;;;;;;;21.31;15.17;99525.38;1837614;77;20159;-66
2021/03/25 07:24:27;;;;;;;;;;;;;;;21.56;14.84;99530.72;1820130;77;20200;-67
2021/03/25 07:26:56;;;;;;;;;;;;;;;21.80;14.43;99523.63;1865731;77;20253;-67
2021/03/25 07:29:33;;;;;;;;;;;;;;;22.02;14.24;99518.59;1856565;77;20225;-67
2021/03/25 07:32:10;;;;;;;;;;;;;;;21.98;14.08;99521.45;1855067;77;20158;-67
2021/03/25 07:34:43;;;;;;;;;;;;;;;22.16;14.25;99516.53;1833911;77;20142;-66
2021/03/25 07:37:12;;;;;;;;;;;;;;;22.58;14.18;99517.14;1808931;77;20129;-67
2021/03/25 07:39:48;;;;;;;;;;;;;;;22.52;14.06;99521.58;1855586;77;20229;-68
2021/03/25 07:42:31;;;;;;;;;;;;;;;22.53;14.05;99515.12;1846401;77;20230;-68
2021/03/25 07:45:22;;;;;;;;;;;;;;;22.70;13.94;99513.92;1842072;77;20131;-67
2021/03/25 07:47:52;;;;;;;;;;;;;;;22.82;13.84;99516.13;1851657;77;20146;-67
2021/03/25 07:50:32;;;;;;;;;;;;;;;23.17;13.54;99503.73;1849991;77;20135;-68
2021/03/25 07:53:25;;;;;;;;;;;;;;;23.40;13.15;99509.12;1820995;77;20141;-66
2021/03/25 07:56:14;;;;;;;;;;;;;;;23.45;12.89;99511.94;1837083;77;20122;-67
2021/03/25 07:58:45;;;;;;;;;;;;;;;23.55;12.79;99514.57;1837576;77;20138;-67
2021/03/25 08:01:17;;;;;;;;;;;;;;;23.65;12.53;99505.33;1827458;77;20229;-67
2021/03/25 08:03:55;;;;;;;;;;;;;;;23.62;12.69;99507.14;1845719;77;20126;-66
2021/03/25 08:06:31;;;;;;;;;;;;;;;23.75;12.26;99508.76;1861130;77;20131;-67
2021/03/25 08:09:12;;;;;;;;;;;;;;;23.72;12.48;99506.55;1848818;77;20149;-68
2021/03/25 08:11:57;;;;;;;;;;;;;;;24.06;12.37;99504.02;1851192;77;21176;-67
2021/03/25 08:14:27;;;;;;;;;;;;;;;24.42;11.79;99502.77;1843174;77;20131;-66
2021/03/25 08:17:02;;;;;;;;;;;;;;;24.37;11.67;99505.37;1839321;77;20434;-67
2021/03/25 08:20:02;;;;;;;;;;;;;;;24.37;11.32;99510.78;1858675;77;20150;-67
2021/03/25 08:23:00;;;;;;;;;;;;;;;24.39;11.35;99509.49;1855617;77;20445;-68
2021/03/25 08:25:41;;;;;;;;;;;;;;;24.58;11.24;99510.66;1855765;77;20406;-67
2021/03/25 08:28:16;;;;;;;;;;;;;;;24.65;11.19;99514.53;1845850;77;20551;-68
2021/03/25 08:30:50;;;;;;;;;;;;;;;24.52;10.86;99515.66;1859657;77;20154;-67
2021/03/25 08:33:27;;;;;;;;;;;;;;;24.36;10.87;99518.07;1844234;77;20134;-67
2021/03/25 08:36:02;;;;;;;;;;;;;;;24.38;10.96;99521.34;1826249;77;20211;-67
2021/03/25 08:38:46;;;;;;;;;;;;;;;24.19;10.97;99522.09;1849639;77;20159;-67
2021/03/25 08:41:35;;;;;;;;;;;;;;;24.17;11.34;99526.10;1848389;77;20205;-67
2021/03/25 08:44:07;;;;;;;;;;;;;;;24.51;11.22;99521.58;1860419;77;20229;-67
2021/03/25 08:46:54;;;;;;;;;;;;;;;24.68;11.05;99519.47;1862201;77;20248;-67
2021/03/25 08:49:27;;;;;;;;;;;;;;;24.71;11.09;99517.09;1855458;77;20154;-68
2021/03/25 08:51:54;;;;;;;;;;;;;;;24.67;11.35;99520.00;1808672;77;20237;-67
2021/03/25 08:54:35;;;;;;;;;;;;;;;24.51;10.99;99505.91;1831300;77;20205;-68
2021/03/25 08:57:16;;;;;;;;;;;;;;;24.34;10.66;99505.87;1836306;77;20249;-67
2021/03/25 09:00:08;;;;;;;;;;;;;;;24.34;11.07;99498.59;1817221;77;20155;-66
2021/03/25 09:02:39;;;;;;;;;;;;;;;24.54;11.44;99500.86;1839128;77;20230;-68
2021/03/25 09:05:37;;;;;;;;;;;;;;;24.80;11.47;99498.05;1843201;77;20385;-68
2021/03/25 09:08:08;;;;;;;;;;;;;;;25.05;11.04;99494.64;1860329;77;20385;-66
2021/03/25 09:10:55;;;;;;;;;;;;;;;25.14;11.06;99499.38;1856124;77;20146;-66
2021/03/25 09:13:25;;;;;;;;;;;;;;;25.31;10.67;99493.15;1829037;77;20403;-67
2021/03/25 09:15:55;;;;;;;;;;;;;;;25.38;10.75;99489.19;1815906;77;20155;-67
2021/03/25 09:18:25;;;;;;;;;;;;;;;25.32;10.91;99494.22;1844280;77;20166;-67
2021/03/25 09:20:55;;;;;;;;;;;;;;;25.04;10.77;99501.91;1824616;77;20253;-66
2021/03/25 09:23:32;;;;;;;;;;;;;;;25.00;10.79;99492.11;1859985;77;20139;-67
2021/03/25 09:26:01;;;;;;;;;;;;;;;24.94;10.76;99494.47;1819656;77;20157;-67
2021/03/25 09:28:52;;;;;;;;;;;;;;;24.90;10.77;99493.87;1820805;77;20364;-67
2021/03/25 09:31:20;;;;;;;;;;;;;;;24.96;10.71;99489.63;1855846;77;20147;-66
2021/03/25 09:34:10;;;;;;;;;;;;;;;24.95;10.76;99490.71;1856150;77;20234;-68
2021/03/25 09:36:48;;;;;;;;;;;;;;;25.16;10.35;99486.95;1852617;76;20134;-68
2021/03/25 09:39:35;;;;;;;;;;;;;;;24.86;10.38;99490.00;1834003;77;20221;-68
2021/03/25 09:42:16;;;;;;;;;;;;;;;24.37;10.75;99492.70;1842010;77;20174;-65
2021/03/25 09:44:45;;;;;;;;;;;;;;;24.08;10.94;99485.14;1855988;77;20151;-67
2021/03/25 09:47:30;;;;;;;;;;;;;;;23.91;11.00;99489.69;1839864;77;20413;-67
2021/03/25 09:50:05;;;;;;;;;;;;;;;23.86;11.06;99486.88;1835423;77;20119;-67
2021/03/25 09:52:38;;;;;;;;;;;;;;;23.82;10.86;99488.69;1795209;77;20513;-66
2021/03/25 09:55:09;;;;;;;;;;;;;;;23.68;11.16;99492.72;1861214;77;20186;-68
2021/03/25 09:57:42;;;;;;;;;;;;;;;23.60;11.32;99495.26;1857393;77;20232;-68
2021/03/25 10:00:19;;;;;;;;;;;;;;;23.42;11.04;99501.61;1866329;77;20154;-68
2021/03/25 10:02:53;;;;;;;;;;;;;;;23.47;10.94;99494.14;1867227;77;20405;-68
2021/03/25 10:05:34;;;;;;;;;;;;;;;23.44;10.67;99498.69;1860906;77;20226;-68
2021/03/25 10:08:20;;;;;;;;;;;;;;;23.45;10.57;99480.08;1861828;77;20158;-65
2021/03/25 10:11:00;;;;;;;;;;;;;;;23.47;10.96;99487.94;1830819;77;20378;-67
2021/03/25 10:13:38;;;;;;;;;;;;;;;23.30;10.97;99484.61;1853436;77;20162;-68
2021/03/25 10:16:09;;;;;;;;;;;;;;;23.47;10.92;99491.98;1865719;77;20249;-69
2021/03/25 10:18:44;;;;;;;;;;;;;;;23.91;10.97;99485.09;1851542;77;20217;-67
2021/03/25 10:21:22;;;;;;;;;;;;;;;24.22;11.00;99487.84;1860697;77;20143;-67
2021/03/25 10:23:54;;;;;;;;;;;;;;;24.34;10.51;99483.73;1816112;77;20134;-66
2021/03/25 10:26:39;;;;;;;;;;;;;;;24.21;10.42;99489.44;1867334;77;20568;-67
2021/03/25 10:29:11;;;;;;;;;;;;;;;24.15;10.56;99479.07;1825074;77;20173;-67
2021/03/25 10:31:49;;;;;;;;;;;;;;;24.45;10.59;99483.92;1862598;77;20150;-67
2021/03/25 10:34:29;;;;;;;;;;;;;;;24.67;10.48;99479.45;1848040;77;20146;-68
2021/03/25 10:37:28;;;;;;;;;;;;;;;24.76;10.12;99480.69;1833835;77;20178;-67
2021/03/25 10:40:02;;;;;;;;;;;;;;;24.59;10.55;99475.25;1764817;80;20139;-69
2021/03/25 10:42:38;;;;;;;;;;;;;;;24.13;10.88;99479.84;1796358;79;20436;-67
2021/03/25 10:45:22;;;;;;;;;;;;;;;23.52;10.66;99489.40;1777180;80;20144;-67
2021/03/25 10:47:54;;;;;;;;;;;;;;;22.94;11.35;99483.77;1792666;79;20385;-67
2021/03/25 10:50:35;;;;;;;;;;;;;;;22.39;11.65;99469.22;1772058;80;20151;-68
2021/03/25 10:53:04;;;;;;;;;;;;;;;21.84;11.96;99469.64;1770645;80;20242;-67
2021/03/25 10:55:39;;;;;;;;;;;;;;;21.48;12.44;99466.47;1798878;79;20141;-67
2021/03/25 10:58:10;;;;;;;;;;;;;;;21.29;12.56;99474.50;1807125;79;20409;-67
2021/03/25 11:00:38;;;;;;;;;;;;;;;21.26;12.80;99466.06;1783731;79;20224;-67
2021/03/25 11:03:18;;;;;;;;;;;;;;;21.08;12.84;99464.19;1797957;78;20185;-66
2021/03/25 11:05:53;;;;;;;;;;;;;;;20.82;12.57;99467.95;1804677;79;20236;-69
2021/03/25 11:08:30;;;;;;;;;;;;;;;20.50;13.09;99461.25;1808464;79;20137;-66
2021/03/25 11:10:59;;;;;;;;;;;;;;;20.24;12.97;99452.86;1782048;80;20143;-66
2021/03/25 11:13:27;;;;;;;;;;;;;;;20.01;13.12;99462.79;1777086;80;20250;-67
2021/03/25 11:16:05;;;;;;;;;;;;;;;19.67;13.62;99455.39;1784642;79;20149;-66
2021/03/25 11:18:56;;;;;;;;;;;;;;;19.32;13.81;99457.05;1805783;78;20440;-67
2021/03/25 11:21:30;;;;;;;;;;;;;;;19.04;14.20;99459.50;1816944;78;20172;-65
2021/03/25 11:24:07;;;;;;;;;;;;;;;18.86;14.31;99453.95;1819848;78;20212;-67
2021/03/25 11:26:34;;;;;;;;;;;;;;;18.70;14.13;99457.31;1821776;78;20400;-67
2021/03/25 11:29:05;;;;;;;;;;;;;;;18.66;14.65;99450.73;1805016;78;20145;-69
2021/03/25 11:31:34;;;;;;;;;;;;;;;18.60;15.10;99442.19;1809493;78;20184;-67
2021/03/25 11:34:01;;;;;;;;;;;;;;;18.48;14.67;99449.17;1820618;78;20208;-66
2021/03/25 11:36:38;;;;;;;;;;;;;;;18.38;14.61;99442.38;1827111;79;20196;-67
2021/03/25 11:39:14;;;;;;;;;;;;;;;18.22;14.55;99444.13;1825809;78;20121;-66
2021/03/25 11:41:44;;;;;;;;;;;;;;;17.96;14.51;99447.05;1812084;78;20164;-66
2021/03/25 11:44:11;;;;;;;;;;;;;;;17.64;14.43;99437.34;1816277;78;20165;-67
2021/03/25 11:46:46;;;;;;;;;;;;;;;17.27;15.04;99443.44;1771968;78;20265;-67
2021/03/25 11:49:16;;;;;;;;;;;;;;;16.92;15.02;99441.79;1806705;78;20447;-64
2021/03/25 11:51:46;;;;;;;;;;;;;;;16.54;15.52;99439.42;1797746;78;20315;-66
2021/03/25 11:54:24;;;;;;;;;;;;;;;16.19;15.70;99452.13;1794623;78;20140;-67
2021/03/25 11:56:56;;;;;;;;;;;;;;;15.95;16.18;99443.16;1821602;78;20143;-67
2021/03/25 11:59:27;;;;;;;;;;;;;;;15.70;16.38;99436.81;1821478;78;20251;-68
2021/03/25 12:02:24;;;;;;;;;;;;;;;15.54;16.91;99440.50;1806388;78;20149;-66
2021/03/25 12:04:52;;;;;;;;;;;;;;;15.38;17.38;99439.39;1823765;78;20236;-67
2021/03/25 12:07:25;;;;;;;;;;;;;;;15.26;17.36;99434.53;1797812;79;20149;-67
2021/03/25 12:10:15;;;;;;;;;;;;;;;15.23;17.67;99438.06;1816625;78;20173;-67
2021/03/25 12:12:46;;;;;;;;;;;;;;;15.25;17.61;99429.38;1799100;78;20144;-67
2021/03/25 12:15:14;;;;;;;;;;;;;;;15.26;17.55;99433.20;1819913;78;20196;-66
2021/03/25 12:17:45;;;;;;;;;;;;;;;15.33;17.40;99432.75;1802201;78;20141;-67
2021/03/25 12:20:21;;;;;;;;;;;;;;;15.30;17.58;99434.48;1819759;78;20140;-68
2021/03/25 12:22:49;;;;;;;;;;;;;;;15.30;17.51;99423.82;1811460;78;20149;-67
2021/03/25 12:25:18;;;;;;;;;;;;;;;15.24;17.72;99423.23;1788291;79;20505;-68
2021/03/25 12:27:46;;;;;;;;;;;;;;;15.15;17.89;99424.34;1797338;79;20148;-68
2021/03/25 12:30:14;;;;;;;;;;;;;;;15.07;17.78;99419.91;1824610;78;20472;-67
2021/03/25 12:32:41;;;;;;;;;;;;;;;15.02;18.22;99433.45;1814596;78;20228;-66
2021/03/25 12:35:12;;;;;;;;;;;;;;;14.94;17.83;99428.56;1791200;79;20129;-69
2021/03/25 12:37:41;;;;;;;;;;;;;;;14.86;17.75;99427.80;1793178;78;20257;-66
2021/03/25 12:40:12;;;;;;;;;;;;;;;14.73;17.80;99425.25;1802146;78;20408;-66
2021/03/25 12:42:39;;;;;;;;;;;;;;;14.55;17.60;99431.38;1797824;78;20124;-68
2021/03/25 12:45:08;;;;;;;;;;;;;;;14.35;18.25;99422.57;1814648;78;20155;-67
2021/03/25 12:47:36;;;;;;;;;;;;;;;14.16;18.02;99427.88;1797512;79;20133;-66
2021/03/25 12:50:07;;;;;;;;;;;;;;;14.01;18.42;99422.16;1822445;78;20173;-67
2021/03/25 12:52:35;;;;;;;;;;;;;;;13.90;18.67;99422.08;1786977;79;20136;-65
2021/03/25 12:55:04;;;;;;;;;;;;;;;13.79;18.57;99417.47;1786677;80;20175;-66
2021/03/25 12:57:31;;;;;;;;;;;;;;;13.64;18.94;99415.24;1800140;78;20144;-67
2021/03/25 13:00:01;;;;;;;;;;;;;;;13.44;18.92;99410.03;1746750;80;20151;-65
2021/03/25 13:02:28;;;;;;;;;;;;;;;13.25;19.28;99409.91;1795899;79;20228;-66
2021/03/25 13:04:57;;;;;;;;;;;;;;;13.08;19.62;99409.14;1750214;80;20410;-65
2021/03/25 13:07:25;;;;;;;;;;;;;;;12.85;19.66;99409.88;1796888;78;20121;-66
2021/03/25 13:09:54;;;;;;;;;;;;;;;12.63;19.67;99408.23;1794997;78;20129;-69
2021/03/25 13:12:23;;;;;;;;;;;;;;;12.41;19.97;99405.77;1823174;78;20141;-67
2021/03/25 13:14:51;;;;;;;;;;;;;;;12.23;20.24;99411.25;1797322;79;20125;-67
2021/03/25 13:17:21;;;;;;;;;;;;;;;12.06;20.30;99410.89;1826691;78;20136;-66
2021/03/25 13:19:50;;;;;;;;;;;;;;;11.88;20.67;99411.49;1811832;78;20475;-66
2021/03/25 13:22:18;;;;;;;;;;;;;;;11.71;20.88;99410.62;1811422;78;20232;-66
2021/03/25 13:24:47;;;;;;;;;;;;;;;11.57;21.28;99405.47;1786471;78;20186;-66
2021/03/25 13:27:15;;;;;;;;;;;;;;;11.44;21.26;99411.22;1797700;78;20500;-65
2021/03/25 13:29:42;;;;;;;;;;;;;;;11.32;21.11;99400.09;1802188;78;20161;-66